Time;durP1;ratioP1;P1;durP2;ratioP2;P2;SDS_P1;SDS_P2;PMS_P1;PMS_P2;Temp;Humidity;BMP_temperature;BMP_pressure;BME280_temperature;BME280_humidity;BME280_pressure;Samples;Min_cycle;Max_cycle;Signal;HPM_P1;HPM_P2
2022/03/21 00:00:56;;;;;;;23.17;17.67;;;10.70;99.90;;;;;;5043721;28;20045;-78
2022/03/21 00:03:24;;;;;;;22.00;16.67;;;10.70;99.90;;;;;;5047576;28;20036;-78
2022/03/21 00:05:51;;;;;;;21.98;16.63;;;10.80;99.90;;;;;;5043214;28;20057;-78
2022/03/21 00:08:18;;;;;;;21.95;16.20;;;10.80;99.90;;;;;;5046287;28;20037;-78
2022/03/21 00:10:45;;;;;;;21.88;16.95;;;10.80;99.90;;;;;;5042199;28;20112;-78
2022/03/21 00:13:14;;;;;;;20.83;15.95;;;10.80;99.90;;;;;;5042065;28;20029;-78
2022/03/21 00:15:40;;;;;;;19.63;15.23;;;10.90;99.90;;;;;;5042268;28;20064;-78
2022/03/21 00:18:06;;;;;;;21.90;15.98;;;10.90;99.90;;;;;;5042208;28;20068;-78
2022/03/21 00:20:33;;;;;;;20.08;15.32;;;10.80;99.90;;;;;;5042027;28;20029;-78
2022/03/21 00:23:00;;;;;;;21.23;15.35;;;10.90;99.90;;;;;;5048668;28;20032;-78
2022/03/21 00:25:25;;;;;;;21.05;15.63;;;10.90;99.90;;;;;;5046502;28;20037;-78
2022/03/21 00:27:51;;;;;;;20.77;15.60;;;10.90;99.90;;;;;;5041196;28;20033;-78
2022/03/21 00:30:17;;;;;;;22.38;16.40;;;10.90;99.90;;;;;;5043214;28;20033;-78
2022/03/21 00:32:44;;;;;;;22.30;15.45;;;10.80;99.90;;;;;;5040533;28;20280;-77
2022/03/21 00:35:12;;;;;;;22.10;16.02;;;10.90;99.90;;;;;;5043197;28;20036;-78
2022/03/21 00:37:39;;;;;;;22.27;16.05;;;10.80;99.90;;;;;;5040545;28;20401;-78
2022/03/21 00:40:07;;;;;;;21.98;16.02;;;10.80;99.90;;;;;;5039353;28;20042;-78
2022/03/21 00:42:37;;;;;;;20.08;15.52;;;10.70;99.90;;;;;;5041553;28;20409;-78
2022/03/21 00:45:09;;;;;;;21.20;15.15;;;10.80;99.90;;;;;;5041269;28;20017;-78
2022/03/21 00:47:36;;;;;;;20.25;15.05;;;10.80;99.90;;;;;;5047480;28;20484;-78
2022/03/21 00:50:03;;;;;;;21.73;15.25;;;10.70;99.90;;;;;;5042423;28;20025;-78
2022/03/21 00:52:30;;;;;;;22.85;15.93;;;10.70;99.90;;;;;;5039158;28;20552;-78
2022/03/21 00:54:56;;;;;;;21.98;16.48;;;10.80;99.90;;;;;;5040423;28;20575;-78
2022/03/21 00:57:22;;;;;;;22.65;16.02;;;10.70;99.90;;;;;;5042771;28;20021;-78
2022/03/21 00:59:48;;;;;;;19.88;15.40;;;10.70;99.90;;;;;;5052231;28;20055;-78
2022/03/21 01:02:13;;;;;;;19.55;15.13;;;10.70;99.90;;;;;;5042328;28;20581;-78
2022/03/21 01:04:39;;;;;;;22.65;16.15;;;10.70;99.90;;;;;;5045807;28;20025;-78
2022/03/21 01:07:05;;;;;;;19.70;14.20;;;10.70;99.90;;;;;;5047711;28;20080;-78
2022/03/21 01:09:32;;;;;;;21.92;15.70;;;10.70;99.90;;;;;;5051865;28;20088;-78
2022/03/21 01:12:03;;;;;;;18.75;15.25;;;10.80;99.90;;;;;;5048366;28;20115;-78
2022/03/21 01:14:31;;;;;;;21.17;14.60;;;10.70;99.90;;;;;;5045875;28;20453;-79
2022/03/21 01:16:57;;;;;;;20.25;14.05;;;10.80;99.90;;;;;;5046687;28;20032;-78
2022/03/21 01:19:24;;;;;;;20.58;14.68;;;10.80;99.90;;;;;;5046330;28;20584;-78
2022/03/21 01:21:49;;;;;;;20.58;15.05;;;10.80;99.90;;;;;;5049425;28;20535;-78
2022/03/21 01:24:15;;;;;;;20.05;13.63;;;10.80;99.90;;;;;;5049862;28;20029;-78
2022/03/21 01:26:41;;;;;;;20.27;15.18;;;10.80;99.90;;;;;;5044535;28;20048;-78
2022/03/21 01:29:07;;;;;;;19.75;14.68;;;10.80;99.90;;;;;;5045408;28;20461;-78
2022/03/21 01:31:33;;;;;;;21.70;15.45;;;10.80;99.90;;;;;;5046801;28;20029;-78
2022/03/21 01:33:59;;;;;;;20.17;15.82;;;10.80;99.90;;;;;;5049300;28;20029;-78
2022/03/21 01:36:24;;;;;;;22.33;15.73;;;10.80;99.90;;;;;;5051058;28;20028;-78
2022/03/21 01:38:50;;;;;;;22.13;14.93;;;10.70;99.90;;;;;;5047042;28;20028;-78
2022/03/21 01:41:16;;;;;;;23.00;15.93;;;10.70;99.90;;;;;;5048708;28;20520;-78
2022/03/21 01:43:59;;;;;;;25.08;16.25;;;10.70;99.90;;;;;;5046514;28;20025;-78
2022/03/21 01:46:25;;;;;;;20.42;15.63;;;10.70;99.90;;;;;;5043131;28;20030;-78
2022/03/21 01:48:51;;;;;;;19.58;15.07;;;10.70;99.90;;;;;;5048247;28;20047;-78
2022/03/21 01:51:17;;;;;;;22.75;14.95;;;10.80;99.90;;;;;;5049105;28;20088;-78
2022/03/21 01:56:27;;;;;;;18.27;15.27;;;10.80;99.90;;;;;;5049584;28;20106;-78
2022/03/21 01:58:54;;;;;;;18.70;13.70;;;10.90;99.90;;;;;;5045237;28;20037;-78
2022/03/21 02:01:20;;;;;;;17.13;13.02;;;10.90;99.90;;;;;;5044464;28;20077;-79
2022/03/21 02:03:45;;;;;;;18.73;11.40;;;11.00;99.90;;;;;;5052582;28;20067;-78
2022/03/21 02:06:11;;;;;;;13.98;10.90;;;11.00;99.90;;;;;;5044386;28;20108;-78
2022/03/21 02:08:37;;;;;;;17.67;11.05;;;11.10;99.90;;;;;;5044023;28;20515;-78
2022/03/21 02:11:03;;;;;;;16.35;10.50;;;11.20;99.90;;;;;;5045151;28;20096;-78
2022/03/21 02:13:30;;;;;;;15.82;11.15;;;11.20;99.90;;;;;;5050091;28;20381;-78
2022/03/21 02:15:55;;;;;;;16.05;10.45;;;11.30;99.90;;;;;;5047290;28;20032;-78
2022/03/21 02:18:24;;;;;;;15.75;10.32;;;11.30;99.90;;;;;;5052583;28;20550;-78
2022/03/21 02:20:53;;;;;;;14.60;10.85;;;11.40;99.90;;;;;;5046365;28;20033;-78
2022/03/21 02:23:42;;;;;;;16.90;10.25;;;11.40;99.90;;;;;;5052238;28;20045;-79
2022/03/21 02:26:10;;;;;;;17.25;11.35;;;11.30;99.90;;;;;;5042244;28;20032;-79
2022/03/21 02:28:37;;;;;;;16.00;9.65;;;11.30;99.90;;;;;;5051343;28;20044;-78
2022/03/21 02:31:03;;;;;;;14.43;10.18;;;11.40;99.90;;;;;;5042542;28;20071;-79
2022/03/21 02:33:29;;;;;;;16.25;10.25;;;11.40;99.90;;;;;;5048644;28;20025;-79
2022/03/21 02:35:57;;;;;;;14.60;10.50;;;11.40;99.90;;;;;;5045226;28;20040;-79
2022/03/21 02:38:24;;;;;;;16.90;10.45;;;11.40;99.90;;;;;;5042854;28;20040;-79
2022/03/21 02:40:50;;;;;;;14.82;11.02;;;11.40;99.90;;;;;;5043704;28;20549;-78
2022/03/21 02:43:16;;;;;;;14.90;10.02;;;11.50;99.90;;;;;;5044746;28;20112;-78
2022/03/21 02:45:41;;;;;;;15.98;10.23;;;11.50;99.90;;;;;;5048668;28;20078;-79
2022/03/21 02:48:08;;;;;;;15.20;10.35;;;11.50;99.90;;;;;;5048032;28;20104;-79
2022/03/21 02:51:00;;;;;;;14.38;10.30;;;11.40;99.90;;;;;;5042726;28;20029;-78
2022/03/21 02:53:30;;;;;;;16.35;10.50;;;11.40;99.90;;;;;;5040263;28;20037;-79
2022/03/21 02:55:56;;;;;;;15.32;10.32;;;11.40;99.90;;;;;;5044093;28;20482;-79
2022/03/21 02:58:22;;;;;;;14.90;9.82;;;11.40;99.90;;;;;;5044861;28;20567;-79
2022/03/21 03:00:50;;;;;;;13.68;10.23;;;11.40;99.90;;;;;;5052212;28;20037;-78
2022/03/21 03:03:16;;;;;;;14.20;10.25;;;11.40;99.90;;;;;;5051260;28;20032;-79
2022/03/21 03:05:41;;;;;;;14.55;10.35;;;11.50;99.90;;;;;;5048040;28;20040;-79
2022/03/21 03:08:07;;;;;;;14.73;10.30;;;11.50;99.90;;;;;;5046560;28;20090;-79
2022/03/21 03:10:33;;;;;;;18.25;10.40;;;11.40;99.90;;;;;;5047128;28;20029;-79
2022/03/21 03:12:59;;;;;;;12.90;9.95;;;11.40;99.90;;;;;;5051374;28;20378;-79
2022/03/21 03:15:24;;;;;;;16.13;11.23;;;11.40;99.90;;;;;;5052052;28;20043;-78
2022/03/21 03:17:50;;;;;;;15.18;10.90;;;11.40;99.90;;;;;;5047755;28;20024;-79
2022/03/21 03:20:16;;;;;;;16.75;10.73;;;11.40;99.90;;;;;;5050587;28;20037;-79
2022/03/21 03:22:43;;;;;;;16.90;10.88;;;11.40;99.90;;;;;;5048162;28;20029;-79
2022/03/21 03:25:10;;;;;;;16.10;10.23;;;11.40;99.90;;;;;;5054339;28;20037;-79
2022/03/21 03:27:36;;;;;;;15.32;10.30;;;11.40;99.90;;;;;;5055502;28;20035;-79
2022/03/21 03:30:02;;;;;;;14.52;10.93;;;11.40;99.90;;;;;;5050181;28;20104;-78
2022/03/21 03:32:28;;;;;;;14.40;10.88;;;11.50;99.90;;;;;;5046715;28;20025;-78
2022/03/21 03:34:55;;;;;;;14.73;10.55;;;11.50;99.90;;;;;;5047845;28;20485;-78
2022/03/21 03:37:20;;;;;;;16.88;11.45;;;11.50;99.90;;;;;;5049409;28;20178;-78
2022/03/21 03:39:46;;;;;;;18.27;11.32;;;11.40;99.90;;;;;;5053507;28;20040;-78
2022/03/21 03:42:12;;;;;;;14.50;11.00;;;11.40;99.90;;;;;;5051053;28;20031;-79
2022/03/21 03:44:38;;;;;;;17.88;10.57;;;11.40;99.90;;;;;;5046793;28;20029;-78
2022/03/21 03:47:04;;;;;;;17.30;11.27;;;11.40;99.90;;;;;;5046737;28;20508;-79
2022/03/21 03:49:30;;;;;;;17.38;10.63;;;11.50;99.90;;;;;;5048717;28;20029;-78
2022/03/21 03:51:56;;;;;;;17.70;10.70;;;11.50;99.90;;;;;;5046048;28;20028;-79
2022/03/21 03:54:21;;;;;;;18.90;11.25;;;11.50;99.90;;;;;;5052139;28;20033;-78
2022/03/21 03:56:47;;;;;;;16.50;10.73;;;11.50;99.90;;;;;;5048077;28;20063;-79
2022/03/21 03:59:14;;;;;;;15.50;11.48;;;11.50;99.90;;;;;;5046256;28;20404;-79
2022/03/21 04:01:40;;;;;;;17.00;11.15;;;11.50;99.90;;;;;;5048149;28;20047;-79
2022/03/21 04:04:06;;;;;;;17.92;11.43;;;11.50;99.90;;;;;;5052372;28;20033;-79
2022/03/21 04:06:31;;;;;;;15.27;11.68;;;11.50;99.90;;;;;;5052922;28;20029;-78
2022/03/21 04:08:58;;;;;;;19.38;12.05;;;11.50;99.90;;;;;;5047530;28;20380;-78
2022/03/21 04:11:25;;;;;;;20.08;12.02;;;11.50;99.90;;;;;;5053596;28;20100;-79
2022/03/21 04:13:53;;;;;;;15.63;11.85;;;11.50;99.90;;;;;;5052852;28;20017;-79
2022/03/21 04:16:18;;;;;;;20.42;12.60;;;11.50;99.90;;;;;;5053245;28;20029;-78
2022/03/21 04:18:44;;;;;;;19.73;11.95;;;11.50;99.90;;;;;;5049404;28;20485;-79
2022/03/21 04:21:10;;;;;;;19.98;11.75;;;11.50;99.90;;;;;;5048140;28;20037;-79
2022/03/21 04:23:36;;;;;;;19.25;12.40;;;11.50;99.90;;;;;;5054666;28;20485;-79
2022/03/21 04:26:02;;;;;;;18.70;11.60;;;11.50;99.90;;;;;;5053683;28;20024;-78
2022/03/21 04:28:27;;;;;;;18.48;12.50;;;11.50;99.90;;;;;;5053639;28;20024;-78
2022/03/21 04:30:53;;;;;;;15.52;11.48;;;11.50;99.90;;;;;;5054368;28;20025;-78
2022/03/21 04:33:20;;;;;;;17.67;11.82;;;11.50;99.90;;;;;;5052848;28;20029;-78
2022/03/21 04:35:45;;;;;;;17.30;12.10;;;11.40;99.90;;;;;;5054219;28;20028;-78
2022/03/21 04:38:13;;;;;;;18.38;12.32;;;11.40;99.90;;;;;;5053651;28;20382;-78
2022/03/21 04:40:50;;;;;;;17.98;12.43;;;11.40;99.90;;;;;;5054342;28;20043;-78
2022/03/21 04:43:18;;;;;;;21.05;12.70;;;11.40;99.90;;;;;;5050057;28;20132;-78
2022/03/21 04:45:46;;;;;;;17.02;12.13;;;11.40;99.90;;;;;;5054026;28;20489;-78
2022/03/21 04:48:11;;;;;;;20.27;13.02;;;11.40;99.90;;;;;;5054011;28;20024;-78
2022/03/21 04:50:38;;;;;;;23.75;13.02;;;11.40;99.90;;;;;;5052766;28;20387;-78
2022/03/21 04:53:04;;;;;;;21.15;13.27;;;11.40;99.90;;;;;;5053157;28;20036;-78
2022/03/21 04:55:32;;;;;;;21.50;12.88;;;11.40;99.90;;;;;;5053864;28;20048;-78
2022/03/21 04:57:59;;;;;;;21.48;13.35;;;11.40;99.90;;;;;;5053623;28;20111;-78
2022/03/21 05:00:24;;;;;;;18.40;13.40;;;11.40;99.90;;;;;;5053777;28;20029;-78
2022/03/21 05:02:50;;;;;;;20.52;13.32;;;11.40;99.90;;;;;;5053955;28;20032;-79
2022/03/21 05:05:16;;;;;;;18.27;13.32;;;11.30;99.90;;;;;;5052552;28;20029;-79
2022/03/21 05:07:45;;;;;;;20.98;13.55;;;11.30;99.90;;;;;;5053697;28;20032;-78
2022/03/21 05:10:14;;;;;;;20.98;13.98;;;11.30;99.90;;;;;;5049096;28;20028;-78
2022/03/21 05:12:40;;;;;;;20.83;14.00;;;11.30;99.90;;;;;;5053472;28;20405;-79
2022/03/21 05:15:07;;;;;;;23.52;14.70;;;11.20;99.90;;;;;;5053699;28;20033;-79
2022/03/21 05:17:34;;;;;;;20.63;15.10;;;11.20;99.90;;;;;;5053415;28;20033;-79
2022/03/21 05:20:01;;;;;;;20.05;15.85;;;11.10;99.90;;;;;;5052077;28;20029;-78
2022/03/21 05:22:26;;;;;;;22.15;15.40;;;11.10;99.90;;;;;;5052555;28;20032;-78
2022/03/21 05:35:55;;;;;;;19.02;13.98;;;11.00;99.90;;;;;;5050884;28;20035;-79
2022/03/21 05:38:26;;;;;;;22.70;15.57;;;11.00;99.90;;;;;;5049059;28;20029;-79
2022/03/21 05:40:56;;;;;;;20.92;15.13;;;11.10;99.90;;;;;;5052915;28;20519;-78
2022/03/21 05:43:23;;;;;;;19.80;15.15;;;11.00;99.90;;;;;;5052842;28;20079;-78
2022/03/21 05:45:49;;;;;;;22.13;15.57;;;11.00;99.90;;;;;;5052840;28;20024;-79
2022/03/21 05:51:00;;;;;;;20.60;15.02;;;11.00;99.90;;;;;;5052122;28;20023;-79
2022/03/21 05:53:26;;;;;;;23.70;15.95;;;11.00;99.90;;;;;;5051839;28;20109;-73
2022/03/21 05:55:52;;;;;;;25.83;16.02;;;11.10;99.90;;;;;;5053180;28;20099;-76
2022/03/21 05:58:17;;;;;;;23.67;16.10;;;11.30;99.90;;;;;;5052638;28;20107;-75
2022/03/21 06:00:43;;;;;;;24.85;15.68;;;11.30;99.90;;;;;;5052461;28;20086;-76
2022/03/21 06:03:10;;;;;;;25.98;15.75;;;11.40;99.90;;;;;;5052566;28;20091;-83
2022/03/21 06:05:36;;;;;;;28.70;16.83;;;11.50;99.90;;;;;;5051749;28;20108;-76
2022/03/21 06:08:02;;;;;;;28.60;16.40;;;11.50;99.90;;;;;;5053557;28;20139;-76
2022/03/21 06:10:29;;;;;;;24.10;15.75;;;11.60;99.90;;;;;;5053857;28;20071;-76
2022/03/21 06:12:55;;;;;;;21.50;15.32;;;11.70;99.90;;;;;;5052445;28;20470;-76
2022/03/21 06:15:21;;;;;;;22.30;15.60;;;11.70;99.90;;;;;;5053786;28;20017;-76
2022/03/21 06:17:47;;;;;;;25.45;15.90;;;11.70;99.90;;;;;;5052558;28;20468;-75
2022/03/21 06:20:15;;;;;;;24.80;15.70;;;11.80;99.90;;;;;;5050096;28;20124;-76
2022/03/21 06:22:41;;;;;;;27.77;15.55;;;11.80;99.90;;;;;;5049896;28;20397;-76
2022/03/21 06:25:09;;;;;;;25.75;15.43;;;11.90;99.90;;;;;;5046481;28;20042;-75
2022/03/21 06:27:38;;;;;;;24.45;15.48;;;11.90;99.90;;;;;;5046795;28;20025;-75
2022/03/21 06:30:06;;;;;;;25.73;16.25;;;11.90;99.90;;;;;;5046312;28;20021;-76
2022/03/21 06:32:32;;;;;;;25.05;15.95;;;11.90;99.90;;;;;;5043448;28;20025;-76
2022/03/21 06:34:57;;;;;;;23.98;15.63;;;12.00;99.90;;;;;;5047278;28;20031;-77
2022/03/21 06:37:23;;;;;;;23.75;16.63;;;12.00;99.90;;;;;;5044822;28;20082;-77
2022/03/21 06:39:49;;;;;;;23.90;15.60;;;12.00;99.90;;;;;;5043799;28;20037;-76
2022/03/21 06:42:15;;;;;;;25.35;15.93;;;12.00;99.90;;;;;;5048600;28;20033;-76
2022/03/21 06:44:42;;;;;;;27.77;15.98;;;12.00;99.90;;;;;;5047439;28;20087;-74
2022/03/21 06:47:08;;;;;;;25.20;16.20;;;12.00;99.90;;;;;;5047525;28;20435;-75
2022/03/21 06:49:34;;;;;;;26.08;16.80;;;12.00;99.90;;;;;;5048198;28;20074;-76
2022/03/21 06:52:05;;;;;;;24.83;16.35;;;12.00;99.90;;;;;;5047236;28;20029;-77
2022/03/21 06:54:31;;;;;;;24.60;16.20;;;12.00;99.90;;;;;;5052311;28;20036;-77
2022/03/21 06:56:57;;;;;;;24.77;16.17;;;11.90;99.90;;;;;;5048623;28;20021;-78
2022/03/21 06:59:23;;;;;;;22.13;16.05;;;11.90;99.90;;;;;;5046610;28;20044;-78
2022/03/21 07:01:50;;;;;;;21.60;15.23;;;11.90;99.90;;;;;;5046363;28;20048;-78
2022/03/21 07:04:15;;;;;;;25.38;15.27;;;11.90;99.90;;;;;;5046906;28;20037;-78
2022/03/21 07:06:41;;;;;;;23.38;15.57;;;11.90;99.90;;;;;;5049406;28;20488;-77
2022/03/21 07:09:07;;;;;;;22.48;15.05;;;11.90;99.90;;;;;;5049988;28;20079;-77
2022/03/21 07:11:34;;;;;;;22.58;16.17;;;11.90;99.90;;;;;;5046102;28;20413;-78
2022/03/21 07:14:02;;;;;;;22.77;16.77;;;11.90;99.90;;;;;;5045380;28;20028;-77
2022/03/21 07:16:27;;;;;;;29.70;16.38;;;11.90;99.90;;;;;;5046481;28;20036;-78
2022/03/21 07:18:53;;;;;;;22.25;15.40;;;11.90;99.90;;;;;;5047473;28;20041;-78
2022/03/21 07:21:19;;;;;;;21.05;15.20;;;11.90;99.90;;;;;;5050717;28;20037;-77
2022/03/21 07:23:45;;;;;;;22.50;15.57;;;11.90;99.90;;;;;;5044601;28;20408;-77
2022/03/21 07:26:12;;;;;;;20.60;15.02;;;11.90;99.90;;;;;;5044470;28;20025;-77
2022/03/21 07:28:38;;;;;;;23.23;15.00;;;11.90;99.90;;;;;;5045862;28;20028;-77
2022/03/21 07:31:05;;;;;;;22.20;14.80;;;11.90;99.90;;;;;;5042852;28;20057;-72
2022/03/21 07:33:31;;;;;;;21.55;14.73;;;11.90;99.90;;;;;;5048695;28;20111;-77
2022/03/21 07:35:57;;;;;;;23.15;14.57;;;11.90;99.90;;;;;;5044377;28;20115;-77
2022/03/21 07:38:22;;;;;;;26.17;15.60;;;11.90;99.90;;;;;;5041656;28;20468;-77
2022/03/21 07:40:49;;;;;;;20.55;14.98;;;11.90;99.90;;;;;;5045732;28;20017;-77
2022/03/21 07:43:15;;;;;;;20.02;15.10;;;11.90;99.90;;;;;;5043394;28;20042;-77
2022/03/21 07:48:27;;;;;;;22.33;15.85;;;12.00;99.90;;;;;;5052182;28;20031;-76
2022/03/21 07:50:54;;;;;;;21.02;15.57;;;12.00;99.90;;;;;;5046887;28;20044;-77
2022/03/21 07:53:20;;;;;;;21.27;15.68;;;12.00;99.90;;;;;;5045852;28;20033;-77
2022/03/21 07:55:46;;;;;;;23.80;16.48;;;12.00;99.90;;;;;;5049642;28;20025;-77
2022/03/21 07:58:13;;;;;;;20.77;15.60;;;12.00;99.90;;;;;;5048474;28;20527;-77
2022/03/21 08:00:41;;;;;;;23.27;16.70;;;12.00;99.90;;;;;;5045236;28;20053;-77
2022/03/21 08:03:09;;;;;;;26.02;17.05;;;12.10;99.90;;;;;;5052801;28;20067;-77
2022/03/21 08:05:35;;;;;;;26.15;16.80;;;12.10;99.90;;;;;;5048227;28;20027;-77
2022/03/21 08:08:00;;;;;;;23.58;16.10;;;12.10;99.90;;;;;;5049413;28;20025;-77
2022/03/21 08:10:29;;;;;;;23.20;15.35;;;12.20;99.90;;;;;;5048626;28;20037;-77
2022/03/21 08:12:56;;;;;;;25.75;15.73;;;12.30;99.90;;;;;;5050170;28;20037;-77
2022/03/21 08:15:23;;;;;;;22.08;15.43;;;12.40;99.90;;;;;;5052876;28;20486;-77
2022/03/21 08:17:50;;;;;;;22.15;15.55;;;12.40;99.90;;;;;;5048447;28;20032;-77
2022/03/21 08:20:18;;;;;;;21.58;16.05;;;12.50;99.90;;;;;;5048268;28;20476;-76
2022/03/21 08:22:44;;;;;;;22.98;15.48;;;12.50;99.90;;;;;;5048348;28;20089;-76
2022/03/21 08:25:10;;;;;;;24.70;16.23;;;12.50;99.90;;;;;;5048092;28;20482;-77
2022/03/21 08:27:36;;;;;;;21.48;16.40;;;12.50;99.90;;;;;;5052524;28;20037;-77
2022/03/21 08:30:02;;;;;;;30.08;17.55;;;12.60;99.90;;;;;;5049819;28;20029;-81
2022/03/21 08:32:28;;;;;;;23.13;16.40;;;12.60;99.90;;;;;;5047133;28;20466;-82
2022/03/21 08:34:53;;;;;;;23.90;16.60;;;12.70;99.90;;;;;;5048126;28;20025;-79
2022/03/21 08:37:21;;;;;;;22.40;16.27;;;12.70;99.90;;;;;;5047705;28;20025;-80
2022/03/21 08:39:47;;;;;;;22.63;16.38;;;12.60;99.90;;;;;;5050052;28;20045;-79
2022/03/21 08:42:12;;;;;;;23.58;16.38;;;12.70;99.90;;;;;;5050737;28;20029;-79
2022/03/21 08:44:39;;;;;;;22.73;16.45;;;12.70;99.90;;;;;;5045821;28;20021;-77
2022/03/21 08:47:06;;;;;;;23.80;16.00;;;12.60;99.90;;;;;;5048537;28;20366;-75
2022/03/21 08:49:36;;;;;;;24.38;16.70;;;12.70;99.90;;;;;;5046082;28;20091;-76
2022/03/21 08:52:03;;;;;;;29.60;17.45;;;12.80;99.90;;;;;;5049293;28;20028;-76
2022/03/21 08:54:29;;;;;;;20.58;15.23;;;12.80;99.90;;;;;;5050750;28;20477;-77
2022/03/21 08:56:55;;;;;;;24.30;16.00;;;12.80;99.90;;;;;;5039167;28;20464;-77
2022/03/21 08:59:21;;;;;;;26.65;16.60;;;12.80;99.90;;;;;;5048267;28;20096;-77
2022/03/21 09:01:47;;;;;;;20.75;15.70;;;12.80;99.90;;;;;;5046549;28;20075;-78
2022/03/21 09:04:13;;;;;;;22.75;16.08;;;12.80;99.90;;;;;;5046563;28;20116;-77
2022/03/21 09:06:38;;;;;;;22.25;16.17;;;12.80;99.90;;;;;;5046005;28;20033;-77
2022/03/21 09:09:04;;;;;;;21.10;15.98;;;12.80;99.90;;;;;;5046156;28;20030;-76
2022/03/21 09:11:30;;;;;;;25.60;16.27;;;12.80;99.90;;;;;;5048746;28;20028;-77
2022/03/21 09:13:56;;;;;;;20.40;15.65;;;12.80;99.90;;;;;;5047030;28;20444;-78
2022/03/21 09:16:22;;;;;;;22.10;16.70;;;12.80;99.90;;;;;;5046123;28;20091;-78
2022/03/21 09:18:48;;;;;;;22.75;15.85;;;12.80;99.90;;;;;;5045956;28;20384;-78
2022/03/21 09:21:14;;;;;;;19.42;15.77;;;12.80;99.90;;;;;;5043780;28;20401;-78
2022/03/21 09:23:40;;;;;;;20.98;16.90;;;12.80;99.90;;;;;;5038944;28;20549;-78
2022/03/21 09:26:10;;;;;;;26.63;16.45;;;12.80;99.90;;;;;;5047069;28;20459;-77
2022/03/21 09:28:37;;;;;;;23.73;17.00;;;12.80;99.90;;;;;;5041323;28;20108;-77
2022/03/21 09:31:02;;;;;;;25.05;16.85;;;12.80;99.90;;;;;;5045841;28;20029;-76
2022/03/21 09:33:29;;;;;;;23.63;17.00;;;12.80;99.90;;;;;;5045195;28;20024;-77
2022/03/21 09:35:55;;;;;;;23.00;16.75;;;12.80;99.90;;;;;;5047488;28;20029;-78
2022/03/21 09:38:20;;;;;;;23.25;17.08;;;12.80;99.90;;;;;;5049059;28;20505;-77
2022/03/21 09:40:48;;;;;;;24.45;18.60;;;12.80;99.90;;;;;;5043511;28;20112;-77
2022/03/21 09:43:13;;;;;;;26.17;18.70;;;12.80;99.90;;;;;;5045554;28;20041;-79
2022/03/21 09:45:39;;;;;;;25.77;18.10;;;12.90;99.90;;;;;;5045237;28;20031;-79
2022/03/21 09:48:17;;;;;;;24.58;18.00;;;12.90;99.80;;;;;;5045470;28;20478;-75
2022/03/21 09:50:44;;;;;;;24.20;17.17;;;12.90;99.90;;;;;;5046544;28;20060;-77
2022/03/21 09:53:15;;;;;;;26.45;17.00;;;13.00;99.90;;;;;;5047962;28;20025;-77
2022/03/21 09:55:42;;;;;;;24.05;17.05;;;13.00;99.90;;;;;;5045164;28;20039;-79
2022/03/21 09:58:11;;;;;;;22.20;16.08;;;13.10;99.90;;;;;;5044579;28;20038;-76
2022/03/21 10:00:41;;;;;;;23.77;14.70;;;13.10;99.90;;;;;;5045547;28;20033;-76
2022/03/21 10:03:07;;;;;;;20.55;14.48;;;13.10;99.20;;;;;;5045090;28;20125;-77
2022/03/21 10:05:44;;;;;;;22.55;14.88;;;13.20;99.90;;;;;;5047936;28;20032;-77
2022/03/21 10:08:23;;;;;;;18.35;14.57;;;13.30;99.10;;;;;;5048247;28;20021;-77
2022/03/21 10:10:56;;;;;;;20.23;13.77;;;13.40;99.30;;;;;;5046664;28;20028;-76
2022/03/21 10:13:24;;;;;;;20.45;13.65;;;13.40;99.50;;;;;;5046819;28;20111;-77
2022/03/21 10:16:04;;;;;;;20.20;13.55;;;13.50;99.80;;;;;;5039031;28;20028;-77
2022/03/21 10:18:30;;;;;;;23.33;14.20;;;13.50;99.90;;;;;;5046850;28;20029;-76
2022/03/21 10:21:15;;;;;;;25.52;13.75;;;13.60;99.90;;;;;;5045944;28;20032;-76
2022/03/21 10:23:44;;;;;;;20.55;13.18;;;13.60;99.90;;;;;;5047528;28;20025;-76
2022/03/21 10:26:28;;;;;;;21.42;13.35;;;13.70;99.90;;;;;;5047784;28;20033;-77
2022/03/21 10:28:56;;;;;;;19.77;13.32;;;13.60;99.40;;;;;;5045967;28;20033;-77
2022/03/21 10:31:38;;;;;;;18.48;13.10;;;13.60;98.40;;;;;;5045500;28;20108;-77
2022/03/21 10:34:10;;;;;;;22.70;14.15;;;13.60;98.40;;;;;;5039243;28;20049;-77
2022/03/21 10:36:55;;;;;;;19.23;13.48;;;13.50;99.50;;;;;;5045063;28;20027;-79
2022/03/21 10:39:21;;;;;;;19.63;12.23;;;13.50;99.20;;;;;;5037276;28;20090;-77
2022/03/21 10:41:47;;;;;;;20.02;12.50;;;13.60;99.80;;;;;;5036625;28;20026;-78
2022/03/21 10:44:13;;;;;;;20.13;13.00;;;13.60;99.50;;;;;;5044737;28;20409;-77
2022/03/21 10:46:41;;;;;;;21.30;13.30;;;13.60;99.90;;;;;;5047769;28;20032;-76
2022/03/21 10:49:09;;;;;;;20.27;13.35;;;13.60;99.90;;;;;;5048078;28;20117;-76
2022/03/21 10:51:53;;;;;;;22.80;13.88;;;13.60;99.90;;;;;;5040054;28;20053;-77
2022/03/21 10:54:34;;;;;;;;;;;13.70;99.40;;;;;;5042824;28;20035;-79
2022/03/21 10:57:00;;;;;;;18.15;11.75;;;13.60;99.30;;;;;;5043063;28;19913;-79
2022/03/21 10:59:26;;;;;;;19.63;13.10;;;13.60;98.80;;;;;;5042596;28;20079;-79
2022/03/21 11:02:17;;;;;;;19.15;12.48;;;13.60;99.60;;;;;;5042325;28;20049;-77
2022/03/21 11:04:44;;;;;;;20.52;13.25;;;13.70;98.70;;;;;;5042253;28;20032;-78
2022/03/21 11:07:11;;;;;;;22.02;13.50;;;13.70;99.10;;;;;;5050062;28;20034;-77
2022/03/21 11:09:39;;;;;;;20.00;13.65;;;13.80;99.30;;;;;;5050261;28;20037;-77
2022/03/21 11:12:07;;;;;;;24.70;13.82;;;13.70;99.20;;;;;;5043678;28;20071;-75
2022/03/21 11:14:39;;;;;;;19.90;12.50;;;13.80;99.50;;;;;;5043556;28;20072;-77
2022/03/21 11:17:05;;;;;;;19.58;12.75;;;13.80;99.00;;;;;;5043010;28;20028;-76
2022/03/21 11:19:32;;;;;;;20.10;12.70;;;13.80;98.20;;;;;;5048765;28;20072;-77
2022/03/21 11:22:00;;;;;;;21.30;13.00;;;13.90;98.60;;;;;;5046797;28;20040;-76
2022/03/21 11:24:30;;;;;;;20.85;13.40;;;13.80;98.30;;;;;;5047658;28;20048;-76
2022/03/21 11:27:31;;;;;;;17.42;12.80;;;13.80;98.60;;;;;;5050074;28;20040;-75
2022/03/21 11:30:09;;;;;;;19.75;12.43;;;13.90;98.60;;;;;;5049972;28;20035;-77
2022/03/21 11:32:54;;;;;;;21.23;12.23;;;13.90;97.80;;;;;;5048647;28;20486;-76
2022/03/21 11:35:29;;;;;;;20.63;12.55;;;13.90;98.70;;;;;;5050483;28;20100;-80
2022/03/21 11:38:14;;;;;;;21.40;13.25;;;13.90;98.70;;;;;;5046548;28;20057;-73
2022/03/21 11:40:40;;;;;;;24.83;12.32;;;13.90;98.90;;;;;;5046460;28;20037;-73
2022/03/21 11:43:18;;;;;;;17.75;12.32;;;13.90;98.10;;;;;;5049279;28;20498;-73
2022/03/21 11:45:45;;;;;;;20.88;11.82;;;13.80;98.30;;;;;;5053057;28;20025;-72
2022/03/21 11:48:34;;;;;;;17.73;12.05;;;13.90;99.00;;;;;;5048387;28;20039;-73
2022/03/21 11:51:18;;;;;;;21.52;12.32;;;13.80;97.90;;;;;;5055134;28;20017;-71
2022/03/21 11:53:49;;;;;;;19.98;11.52;;;13.90;97.70;;;;;;5055085;28;20081;-71
2022/03/21 11:56:34;;;;;;;21.73;12.98;;;14.00;97.80;;;;;;5054206;28;20029;-73
2022/03/21 11:59:00;;;;;;;18.55;13.00;;;14.00;98.40;;;;;;5047839;28;20101;-76
2022/03/21 12:01:28;;;;;;;19.50;11.90;;;14.00;97.90;;;;;;5049178;28;20128;-75
2022/03/21 12:03:54;;;;;;;19.92;12.35;;;13.90;97.70;;;;;;5049490;28;20288;-75
2022/03/21 12:06:19;;;;;;;21.10;13.00;;;14.00;97.80;;;;;;5049875;28;20033;-76
2022/03/21 12:09:08;;;;;;;20.58;11.50;;;14.00;98.00;;;;;;5041100;28;20025;-75
2022/03/21 12:11:39;;;;;;;20.88;11.38;;;13.90;97.30;;;;;;5041717;28;20029;-75
2022/03/21 12:14:30;;;;;;;19.58;11.68;;;13.80;97.70;;;;;;5042510;28;20033;-75
2022/03/21 12:17:01;;;;;;;18.83;11.60;;;13.80;97.80;;;;;;5039725;28;20417;-75
2022/03/21 12:19:48;;;;;;;19.80;12.45;;;13.90;98.60;;;;;;5042261;28;20453;-75
2022/03/21 12:22:39;;;;;;;18.52;12.55;;;13.80;98.30;;;;;;5039887;28;20121;-75
2022/03/21 12:25:35;;;;;;;21.13;12.13;;;14.00;98.10;;;;;;5049191;28;20485;-75
2022/03/21 12:28:21;;;;;;;22.23;12.05;;;14.00;98.60;;;;;;5038626;28;20045;-75
2022/03/21 12:30:50;;;;;;;20.77;10.82;;;13.90;97.60;;;;;;5048628;28;20086;-75
2022/03/21 12:33:18;;;;;;;20.25;11.10;;;13.80;97.80;;;;;;5048582;28;20176;-75
2022/03/21 12:35:45;;;;;;;20.58;11.73;;;13.80;97.40;;;;;;5048205;28;20079;-75
2022/03/21 12:38:12;;;;;;;20.98;10.90;;;13.80;97.50;;;;;;5048016;28;20074;-75
2022/03/21 12:40:50;;;;;;;21.02;11.98;;;13.80;97.10;;;;;;5048670;28;20120;-75
2022/03/21 12:43:24;;;;;;;19.90;11.27;;;13.80;97.30;;;;;;5044424;28;20150;-75
2022/03/21 12:45:52;;;;;;;;;;;13.70;97.40;;;;;;5048758;28;20036;-75
2022/03/21 12:48:18;;;;;;;18.58;10.57;;;13.70;96.90;;;;;;5047701;28;19995;-75
2022/03/21 12:50:49;;;;;;;22.92;11.07;;;13.70;97.00;;;;;;5046745;28;20049;-74
2022/03/21 12:53:18;;;;;;;19.17;9.77;;;13.80;97.00;;;;;;5042079;28;20025;-74